createdAt,value
2022-12-22T00:00:18.797Z,59.13
2022-12-22T00:03:04.346Z,63.03
2022-12-22T00:05:50.295Z,76.53
2022-12-22T00:08:36.130Z,66.10
2022-12-22T00:11:21.868Z,71.33
2022-12-22T00:14:07.451Z,65.47
2022-12-22T00:16:56.350Z,72.10
2022-12-22T00:19:43.071Z,72.67
2022-12-22T00:22:33.563Z,66.67
2022-12-22T00:25:18.914Z,65.10
2022-12-22T00:28:04.785Z,61.00
2022-12-22T00:30:50.892Z,64.87
2022-12-22T00:33:39.380Z,75.93
2022-12-22T00:36:29.319Z,64.17
2022-12-22T00:39:15.193Z,74.73
2022-12-22T00:42:01.142Z,65.87
2022-12-22T00:44:46.832Z,66.87
2022-12-22T00:47:44.264Z,63.53
2022-12-22T00:50:30.698Z,71.80
2022-12-22T00:53:18.080Z,65.27
2022-12-22T00:56:04.099Z,76.33
2022-12-22T00:58:49.818Z,72.20
2022-12-22T01:01:36.869Z,60.63
2022-12-22T01:04:22.379Z,65.10
2022-12-22T01:07:07.913Z,59.87
2022-12-22T01:09:54.632Z,68.53
2022-12-22T01:12:43.750Z,69.67
2022-12-22T01:15:35.189Z,70.77
2022-12-22T01:18:21.105Z,64.33
2022-12-22T01:21:06.563Z,70.63
2022-12-22T01:23:52.424Z,76.20
2022-12-22T01:26:38.794Z,69.33
2022-12-22T01:29:24.540Z,78.67
2022-12-22T01:32:10.278Z,68.47
2022-12-22T01:34:56.749Z,74.20
2022-12-22T01:37:42.765Z,65.57
2022-12-22T01:40:38.876Z,67.43
2022-12-22T01:43:41.355Z,67.17
2022-12-22T01:46:45.161Z,64.23
2022-12-22T01:49:51.786Z,61.77
2022-12-22T01:52:42.609Z,68.23
2022-12-22T01:55:35.484Z,78.20
2022-12-22T01:58:21.135Z,55.57
2022-12-22T02:01:07.069Z,70.03
2022-12-22T02:03:52.565Z,61.17
2022-12-22T02:06:56.228Z,64.40
2022-12-22T02:10:03.763Z,55.30
2022-12-22T02:13:15.873Z,58.30
2022-12-22T02:16:10.183Z,58.23
2022-12-22T02:19:31.528Z,52.27
2022-12-22T02:22:50.904Z,60.53
2022-12-22T02:25:47.323Z,62.90
2022-12-22T02:28:34.336Z,59.83
2022-12-22T02:31:19.623Z,68.43
2022-12-22T02:34:05.062Z,63.60
2022-12-22T02:37:02.422Z,59.10
2022-12-22T02:40:35.691Z,66.20
2022-12-22T02:44:11.520Z,50.23
2022-12-22T02:47:39.070Z,57.70
2022-12-22T02:50:48.657Z,57.27
2022-12-22T02:53:36.658Z,56.50
2022-12-22T02:56:26.767Z,55.60
2022-12-22T02:59:12.968Z,64.93
2022-12-22T03:02:01.990Z,69.57
2022-12-22T03:04:47.948Z,67.60
2022-12-22T03:07:34.042Z,62.40
2022-12-22T03:10:19.568Z,66.57
2022-12-22T03:13:05.259Z,59.40
2022-12-22T03:15:51.144Z,64.00
2022-12-22T03:18:36.493Z,58.53
2022-12-22T03:21:22.353Z,71.10
2022-12-22T03:24:08.257Z,77.47
2022-12-22T03:26:35.273Z,75.93
2022-12-22T03:29:02.407Z,69.20
2022-12-22T03:31:29.490Z,62.83
2022-12-22T03:33:56.484Z,69.80
2022-12-22T03:36:23.547Z,67.13
2022-12-22T03:38:50.567Z,62.57
2022-12-22T03:41:40.379Z,75.67
2022-12-22T03:44:25.952Z,64.20
2022-12-22T03:46:52.970Z,64.73
2022-12-22T03:49:22.648Z,62.77
2022-12-22T03:51:52.404Z,61.20
2022-12-22T03:54:25.565Z,76.30
2022-12-22T03:56:54.125Z,63.27
2022-12-22T03:59:21.631Z,71.00
2022-12-22T04:01:53.194Z,72.50
2022-12-22T04:04:24.057Z,75.43
2022-12-22T04:06:51.364Z,64.03
2022-12-22T04:09:18.493Z,71.70
2022-12-22T04:12:03.947Z,80.33
2022-12-22T04:14:34.178Z,81.23
2022-12-22T04:17:04.326Z,65.10
2022-12-22T04:19:32.286Z,83.90
2022-12-22T04:21:59.896Z,69.33
2022-12-22T04:24:26.954Z,63.50
2022-12-22T04:26:54.235Z,74.50
2022-12-22T04:29:21.238Z,73.30
2022-12-22T04:31:48.217Z,68.17
2022-12-22T04:34:15.272Z,76.63
2022-12-22T04:36:42.340Z,67.93
2022-12-22T04:39:09.368Z,80.30
2022-12-22T04:41:36.417Z,76.40
2022-12-22T04:44:03.320Z,90.53
2022-12-22T04:46:30.453Z,75.90
2022-12-22T04:49:00.257Z,65.17
2022-12-22T04:51:28.947Z,78.73
2022-12-22T04:53:56.497Z,71.93
2022-12-22T04:56:23.683Z,63.83
2022-12-22T04:58:50.621Z,63.87
2022-12-22T05:01:19.487Z,66.33
2022-12-22T05:03:47.605Z,79.13
2022-12-22T05:06:15.241Z,73.30
2022-12-22T05:08:42.284Z,76.77
2022-12-22T05:11:09.553Z,81.67
2022-12-22T05:13:36.694Z,87.77
2022-12-22T05:16:10.169Z,85.40
2022-12-22T05:18:39.121Z,75.57
2022-12-22T05:21:23.310Z,75.40
2022-12-22T05:23:51.004Z,70.47
2022-12-22T05:26:19.941Z,99.23
2022-12-22T05:28:48.253Z,87.50
2022-12-22T05:31:22.653Z,80.23
2022-12-22T05:33:50.678Z,87.70
2022-12-22T05:36:18.277Z,74.50
2022-12-22T05:38:45.856Z,81.20
2022-12-22T05:41:13.126Z,79.33
2022-12-22T05:43:40.097Z,78.80
2022-12-22T05:46:10.831Z,73.97
2022-12-22T05:48:39.901Z,79.70
2022-12-22T05:51:11.140Z,88.93
2022-12-22T05:53:38.968Z,87.37
2022-12-22T05:56:07.637Z,78.60
2022-12-22T05:58:38.399Z,75.60
2022-12-22T06:01:06.815Z,84.73
2022-12-22T06:03:34.598Z,83.30
2022-12-22T06:06:01.869Z,83.87
2022-12-22T06:08:29.447Z,85.83
2022-12-22T06:10:58.868Z,86.33
2022-12-22T06:13:26.632Z,83.93
2022-12-22T06:15:54.062Z,79.70
2022-12-22T06:18:21.297Z,82.00
2022-12-22T06:20:52.563Z,89.93
2022-12-22T06:23:20.664Z,91.33
2022-12-22T06:25:56.597Z,71.63
2022-12-22T06:28:24.013Z,86.90
2022-12-22T06:30:51.171Z,88.73
2022-12-22T06:33:18.235Z,86.00
2022-12-22T06:35:45.344Z,88.03
2022-12-22T06:38:12.515Z,76.83
2022-12-22T06:40:39.720Z,88.20
2022-12-22T06:43:10.311Z,85.10
2022-12-22T06:45:41.076Z,75.63
2022-12-22T06:48:10.841Z,91.23
2022-12-22T06:50:38.170Z,85.03
2022-12-22T06:53:06.804Z,83.00
2022-12-22T06:55:33.764Z,90.93
2022-12-22T06:58:00.851Z,78.00
2022-12-22T07:00:28.018Z,87.80
2022-12-22T07:02:55.565Z,90.70
2022-12-22T07:05:26.418Z,87.77
2022-12-22T07:07:53.943Z,91.17
2022-12-22T07:10:40.921Z,83.83
2022-12-22T07:13:19.596Z,88.00
2022-12-22T07:15:57.536Z,89.30
2022-12-22T07:18:29.847Z,102.07
2022-12-22T07:20:57.257Z,91.57
2022-12-22T07:23:24.629Z,111.40
2022-12-22T07:25:51.905Z,97.67
2022-12-22T07:28:21.241Z,91.60
2022-12-22T07:30:50.913Z,94.67
2022-12-22T07:33:19.058Z,95.47
2022-12-22T07:35:47.115Z,78.27
2022-12-22T07:38:14.254Z,84.23
2022-12-22T07:40:42.354Z,103.47
2022-12-22T07:43:10.747Z,93.20
2022-12-22T07:45:37.787Z,88.30
2022-12-22T07:48:25.855Z,83.30
2022-12-22T07:50:53.418Z,94.50
2022-12-22T07:53:20.321Z,84.63
2022-12-22T07:55:47.381Z,86.30
2022-12-22T07:58:14.288Z,98.47
2022-12-22T08:00:41.272Z,85.80
2022-12-22T08:03:09.991Z,88.90
2022-12-22T08:05:38.509Z,74.70
2022-12-22T08:08:05.811Z,71.33
2022-12-22T08:10:33.135Z,91.43
2022-12-22T08:13:00.174Z,85.47
2022-12-22T08:15:27.562Z,89.40
2022-12-22T08:17:54.573Z,74.03
2022-12-22T08:20:21.540Z,80.53
2022-12-22T08:22:48.506Z,76.97
2022-12-22T08:25:15.645Z,79.93
2022-12-22T08:27:51.799Z,86.80
2022-12-22T08:30:19.114Z,81.63
2022-12-22T08:32:49.330Z,82.83
2022-12-22T08:35:17.867Z,85.60
2022-12-22T08:37:46.895Z,84.13
2022-12-22T08:40:24.205Z,90.57
2022-12-22T08:42:59.338Z,77.93
2022-12-22T08:45:26.491Z,79.53
2022-12-22T08:47:53.471Z,87.63
2022-12-22T08:50:20.650Z,73.33
2022-12-22T08:52:47.714Z,78.37
2022-12-22T08:55:14.832Z,84.90
2022-12-22T08:57:42.096Z,75.50
2022-12-22T09:00:13.557Z,84.93
2022-12-22T09:02:40.872Z,81.10
2022-12-22T09:05:08.652Z,79.63
2022-12-22T09:07:35.760Z,81.70
2022-12-22T09:10:02.826Z,81.23
2022-12-22T09:12:30.574Z,85.87
2022-12-22T09:14:57.520Z,70.57
2022-12-22T09:17:24.503Z,74.53
2022-12-22T09:19:51.564Z,86.60
2022-12-22T09:22:25.088Z,66.47
2022-12-22T09:24:55.244Z,74.60
2022-12-22T09:27:22.213Z,71.67
2022-12-22T09:29:49.197Z,75.53
2022-12-22T09:32:16.341Z,71.20
2022-12-22T09:34:43.448Z,77.10
2022-12-22T09:37:10.462Z,83.93
2022-12-22T09:39:37.618Z,79.57
2022-12-22T09:42:04.802Z,76.90
2022-12-22T09:44:44.961Z,93.97
2022-12-22T09:47:56.246Z,92.40
2022-12-22T09:50:26.454Z,106.17
2022-12-22T09:53:02.022Z,104.00
2022-12-22T09:55:47.656Z,85.37
2022-12-22T09:58:30.125Z,97.73
2022-12-22T10:01:06.049Z,102.03
2022-12-22T10:03:46.513Z,93.23
2022-12-22T10:06:39.796Z,93.13
2022-12-22T10:09:48.625Z,88.97
2022-12-22T10:12:20.188Z,88.67
2022-12-22T10:14:51.511Z,88.93
2022-12-22T10:17:32.718Z,74.93
2022-12-22T10:20:29.844Z,82.20
2022-12-22T10:23:05.376Z,76.53
2022-12-22T10:26:16.958Z,78.90
2022-12-22T10:28:34.047Z,78.27
2022-12-22T10:31:24.628Z,85.70
2022-12-22T10:33:57.782Z,78.50
2022-12-22T10:36:27.859Z,70.80
2022-12-22T10:39:02.167Z,83.80
2022-12-22T10:41:35.895Z,77.73
2022-12-22T10:44:09.926Z,69.57
2022-12-22T10:46:48.833Z,91.37
2022-12-22T10:49:23.078Z,71.87
2022-12-22T10:52:30.934Z,77.33
2022-12-22T10:55:29.385Z,65.37
2022-12-22T10:58:11.446Z,85.60
2022-12-22T11:00:39.250Z,72.87
2022-12-22T11:03:08.355Z,66.47
2022-12-22T11:05:35.534Z,78.83
2022-12-22T11:08:18.214Z,69.67
2022-12-22T11:11:07.446Z,69.60
2022-12-22T11:14:12.533Z,84.73
2022-12-22T11:16:59.489Z,91.90
2022-12-22T11:19:50.521Z,85.77
2022-12-22T11:23:01.942Z,86.40
2022-12-22T11:26:23.580Z,92.27
2022-12-22T11:29:15.585Z,84.50
2022-12-22T11:31:58.097Z,96.90
2022-12-22T11:34:52.881Z,92.97
2022-12-22T11:37:40.407Z,89.73
2022-12-22T11:40:49.899Z,94.27
2022-12-22T11:43:49.135Z,83.00
2022-12-22T11:46:51.845Z,89.37
2022-12-22T11:49:52.573Z,92.13
2022-12-22T11:52:35.891Z,94.23
2022-12-22T11:55:14.530Z,83.10
2022-12-22T11:58:21.943Z,79.80
2022-12-22T12:01:24.070Z,82.73
2022-12-22T12:04:23.613Z,82.07
2022-12-22T12:07:27.815Z,83.40
2022-12-22T12:10:29.247Z,76.47
2022-12-22T12:13:36.604Z,78.93
2022-12-22T12:16:44.429Z,74.67
2022-12-22T12:19:46.283Z,68.33
2022-12-22T12:22:33.329Z,70.17
2022-12-22T12:25:11.602Z,76.73
2022-12-22T12:27:57.641Z,71.50
2022-12-22T12:30:41.939Z,62.23
2022-12-22T12:33:21.915Z,65.73
2022-12-22T12:36:05.865Z,62.13
2022-12-22T12:39:08.801Z,68.40
2022-12-22T12:41:50.464Z,64.97
2022-12-22T12:44:23.446Z,65.50
2022-12-22T12:46:53.670Z,67.27
2022-12-22T12:49:38.822Z,80.77
2022-12-22T12:52:10.604Z,66.53
2022-12-22T16:08:03.946Z,6.90
2022-12-22T16:10:34.638Z,6.50
2022-12-22T16:13:04.100Z,5.90
2022-12-22T16:15:34.709Z,4.67
2022-12-22T16:18:02.873Z,5.20
2022-12-22T16:20:37.876Z,6.00
2022-12-22T16:23:10.445Z,6.30
2022-12-22T16:25:39.876Z,6.17
2022-12-22T16:28:07.423Z,7.97
2022-12-22T16:30:35.051Z,3.63
2022-12-22T16:33:02.088Z,4.60
2022-12-22T16:35:32.989Z,4.70
2022-12-22T16:38:00.576Z,2.80
2022-12-22T16:40:28.920Z,3.30
2022-12-22T16:46:15.166Z,8.97
2022-12-22T16:49:00.370Z,10.40
2022-12-22T16:51:34.555Z,8.20
2022-12-22T16:54:02.739Z,9.63
2022-12-22T16:56:31.604Z,4.33
2022-12-22T16:59:03.155Z,11.00
2022-12-22T17:01:47.421Z,7.90
2022-12-22T17:04:23.968Z,5.53
2022-12-22T17:06:53.196Z,5.17
2022-12-22T17:09:53.528Z,7.20
2022-12-22T17:12:28.696Z,5.20
2022-12-22T17:14:58.667Z,3.30
2022-12-22T17:17:32.040Z,8.33
2022-12-22T17:20:01.334Z,4.47
2022-12-22T17:22:32.848Z,7.73
2022-12-22T17:25:04.580Z,6.60
2022-12-22T17:27:33.153Z,5.83
2022-12-22T17:30:05.815Z,5.87
2022-12-22T17:32:32.777Z,6.50
2022-12-22T17:34:59.722Z,7.53
2022-12-22T17:37:26.843Z,8.63
2022-12-22T17:40:00.900Z,5.67
2022-12-22T17:42:31.352Z,4.87
2022-12-22T17:44:58.481Z,4.03
2022-12-22T17:47:33.424Z,5.20
2022-12-22T17:50:03.447Z,4.80
2022-12-22T17:52:30.411Z,3.50
2022-12-22T17:54:57.618Z,3.50
2022-12-22T17:57:32.812Z,5.27
2022-12-22T18:00:00.780Z,11.70
2022-12-22T18:02:27.956Z,3.07
2022-12-22T18:04:55.194Z,3.83
2022-12-22T18:07:25.108Z,2.27
2022-12-22T18:09:59.227Z,4.20
2022-12-22T18:12:26.724Z,7.37
2022-12-22T18:14:53.713Z,3.73
2022-12-22T18:17:28.605Z,7.07
2022-12-22T18:20:00.678Z,5.73
2022-12-22T18:22:30.288Z,5.87
2022-12-22T18:24:58.664Z,3.63
2022-12-22T18:27:25.716Z,3.97
2022-12-22T18:29:52.828Z,5.83
2022-12-22T18:32:27.203Z,4.27
2022-12-22T18:34:54.996Z,4.23
2022-12-22T18:37:22.134Z,5.33
2022-12-22T18:39:49.144Z,7.17
2022-12-22T18:42:24.238Z,2.80
2022-12-22T18:44:52.040Z,7.77
2022-12-22T18:47:19.833Z,3.40
2022-12-22T18:49:47.055Z,6.17
2022-12-22T18:52:23.874Z,2.87
2022-12-22T18:54:50.894Z,4.70
2022-12-22T18:57:20.459Z,4.97
2022-12-22T18:59:49.018Z,4.90
2022-12-22T19:02:26.053Z,8.87
2022-12-22T19:04:54.263Z,4.70
2022-12-22T19:07:25.317Z,7.20
2022-12-22T19:09:52.522Z,17.27
2022-12-22T19:12:23.601Z,9.40
2022-12-22T19:14:55.574Z,16.83
2022-12-22T19:17:29.167Z,11.63
2022-12-22T19:19:57.213Z,8.93
2022-12-22T19:22:24.275Z,9.27
2022-12-22T19:24:51.889Z,9.37
2022-12-22T19:27:23.568Z,9.50
2022-12-22T19:30:02.704Z,12.10
2022-12-22T19:32:41.440Z,10.63
2022-12-22T19:35:19.120Z,7.53
2022-12-22T19:37:49.579Z,8.13
2022-12-22T19:40:19.198Z,15.23
2022-12-22T19:42:50.038Z,11.23
2022-12-22T19:45:25.004Z,10.93
2022-12-22T19:47:54.604Z,13.70
2022-12-22T19:50:26.718Z,19.27
2022-12-22T19:52:56.504Z,18.10
2022-12-22T19:55:27.955Z,17.80
2022-12-22T19:57:56.279Z,20.10
2022-12-22T20:00:27.562Z,22.67
2022-12-22T20:02:57.898Z,18.83
2022-12-22T20:05:25.232Z,22.63
2022-12-22T20:07:56.051Z,18.43
2022-12-22T20:10:24.718Z,16.17
2022-12-22T20:12:55.728Z,21.07
2022-12-22T20:15:30.601Z,21.93
2022-12-22T20:17:58.463Z,18.63
2022-12-22T20:20:35.221Z,16.13
2022-12-22T20:23:17.300Z,17.93
2022-12-22T20:25:49.631Z,13.77
2022-12-22T20:28:23.889Z,10.13
2022-12-22T20:30:51.944Z,7.53
2022-12-22T20:33:22.188Z,7.73
2022-12-22T20:35:52.054Z,7.83
2022-12-22T20:38:37.797Z,8.67
2022-12-22T20:41:09.211Z,12.43
2022-12-22T20:43:38.388Z,9.43
2022-12-22T20:46:20.339Z,9.10
2022-12-22T20:48:54.620Z,6.73
2022-12-22T20:51:24.323Z,6.30
2022-12-22T20:53:53.114Z,9.03
2022-12-22T20:56:39.714Z,7.80
2022-12-22T20:59:21.100Z,6.07
2022-12-22T21:01:51.574Z,8.57
2022-12-22T21:04:19.523Z,9.83
2022-12-22T21:06:52.080Z,6.70
2022-12-22T21:09:20.053Z,7.73
2022-12-22T21:11:47.183Z,13.35
2022-12-22T21:14:14.771Z,11.40
2022-12-22T21:16:46.533Z,7.87
2022-12-22T21:19:19.515Z,8.63
2022-12-22T21:21:47.828Z,7.70
2022-12-22T21:24:15.135Z,7.33
2022-12-22T21:26:53.863Z,10.43
2022-12-22T21:29:25.209Z,9.60
2022-12-22T21:31:52.528Z,6.97
2022-12-22T21:34:20.957Z,8.63
2022-12-22T21:36:57.539Z,13.40
2022-12-22T21:39:41.898Z,8.70
2022-12-22T21:42:20.138Z,9.10
2022-12-22T21:44:47.316Z,9.30
2022-12-22T21:47:18.515Z,7.83
2022-12-22T21:49:45.705Z,8.13
2022-12-22T21:52:12.889Z,9.73
2022-12-22T21:54:39.925Z,7.33
2022-12-22T21:57:07.074Z,8.13
2022-12-22T21:59:34.209Z,9.65
2022-12-22T22:02:01.202Z,9.23
2022-12-22T22:04:28.313Z,9.57
2022-12-22T22:06:55.421Z,10.17
2022-12-22T22:09:22.391Z,10.77
2022-12-22T22:12:09.220Z,9.40
2022-12-22T22:14:37.432Z,13.93
2022-12-22T22:17:04.997Z,9.40
2022-12-22T22:19:32.272Z,12.73
2022-12-22T22:21:59.305Z,18.27
2022-12-22T22:24:26.568Z,14.30
2022-12-22T22:26:56.535Z,11.50
2022-12-22T22:29:23.720Z,17.43
2022-12-22T22:31:50.820Z,14.10
2022-12-22T22:34:17.812Z,14.13
2022-12-22T22:36:44.776Z,17.80
2022-12-22T22:39:12.176Z,11.63
2022-12-22T22:41:43.298Z,14.60
2022-12-22T22:44:11.694Z,16.03
2022-12-22T22:46:38.831Z,14.60
2022-12-22T22:49:07.483Z,13.00
2022-12-22T22:51:34.626Z,15.10
2022-12-22T22:54:01.607Z,13.03
2022-12-22T22:56:28.679Z,12.77
2022-12-22T22:58:55.725Z,12.97
2022-12-22T23:01:22.793Z,13.67
2022-12-22T23:03:50.044Z,13.50
2022-12-22T23:06:17.137Z,15.47
2022-12-22T23:08:44.126Z,12.73
2022-12-22T23:11:14.879Z,11.67
2022-12-22T23:13:43.011Z,15.67
2022-12-22T23:16:10.442Z,14.00
2022-12-22T23:18:37.794Z,16.37
2022-12-22T23:21:07.400Z,15.73
2022-12-22T23:23:35.706Z,19.33
2022-12-22T23:26:02.791Z,19.77
2022-12-22T23:28:29.855Z,20.57
2022-12-22T23:30:56.786Z,26.97
2022-12-22T23:33:24.043Z,35.67
2022-12-22T23:35:51.669Z,30.60
2022-12-22T23:38:21.346Z,40.77
2022-12-22T23:40:53.914Z,47.20
2022-12-22T23:43:22.110Z,44.83
2022-12-22T23:45:49.331Z,46.10
2022-12-22T23:48:16.496Z,49.13
2022-12-22T23:50:47.331Z,44.03
2022-12-22T23:53:16.061Z,48.83
2022-12-22T23:55:48.111Z,49.93
2022-12-22T23:58:16.258Z,56.83
